Time;durP1;ratioP1;P1;durP2;ratioP2;P2;SDS_P1;SDS_P2;PMS_P1;PMS_P2;Temp;Humidity;BMP_temperature;BMP_pressure;BME280_temperature;BME280_humidity;BME280_pressure;Samples;Min_cycle;Max_cycle;Signal;HPM_P1;HPM_P2
2024/03/27 00:00:44;;;;;;;;;;;23.00;32.20;;;;;;5073455;28;19931;-58
2024/03/27 00:03:10;;;;;;;;;;;23.00;32.20;;;;;;5073481;28;19924;-57
2024/03/27 00:05:38;;;;;;;;;;;23.00;32.20;;;;;;5073137;28;19928;-58
2024/03/27 00:08:04;;;;;;;;;;;23.00;32.20;;;;;;5073781;28;19990;-58
2024/03/27 00:10:30;;;;;;;;;;;23.00;32.20;;;;;;5073569;28;20366;-58
2024/03/27 00:12:57;;;;;;;;;;;23.00;32.30;;;;;;5073804;28;19928;-57
2024/03/27 00:15:23;;;;;;;;;;;23.00;32.30;;;;;;5073358;28;19931;-57
2024/03/27 00:17:49;;;;;;;;;;;23.00;32.30;;;;;;5073280;28;19924;-57
2024/03/27 00:20:15;;;;;;;;;;;23.00;32.30;;;;;;5073005;28;19924;-57
2024/03/27 00:22:41;;;;;;;;;;;23.00;32.30;;;;;;5073389;28;19947;-55
2024/03/27 00:25:08;;;;;;;;;;;23.00;32.30;;;;;;5072868;28;20038;-58
2024/03/27 00:27:33;;;;;;;;;;;23.00;32.30;;;;;;5073230;28;19928;-58
2024/03/27 00:29:59;;;;;;;;;;;23.00;32.30;;;;;;5064373;28;19932;-57
2024/03/27 00:32:25;;;;;;;;;;;23.00;32.30;;;;;;5052936;28;19964;-58
2024/03/27 00:34:51;;;;;;;;;;;23.00;32.30;;;;;;5052849;28;19931;-58
2024/03/27 00:37:17;;;;;;;;;;;23.00;32.30;;;;;;5052835;28;19973;-58
2024/03/27 00:39:43;;;;;;;;;;;23.00;32.30;;;;;;5052684;28;20360;-56
2024/03/27 00:42:08;;;;;;;;;;;23.00;32.30;;;;;;5052767;28;19925;-55
2024/03/27 00:44:34;;;;;;;;;;;23.00;32.30;;;;;;5052541;28;19925;-57
2024/03/27 00:47:00;;;;;;;;;;;23.00;32.30;;;;;;5055182;28;19970;-58
2024/03/27 00:49:26;;;;;;;;;;;23.00;32.30;;;;;;5069313;28;19932;-58
2024/03/27 00:51:52;;;;;;;;;;;23.00;32.30;;;;;;5071201;28;19928;-56
2024/03/27 00:54:19;;;;;;;;;;;23.00;32.30;;;;;;5072239;28;20296;-58
2024/03/27 00:56:44;;;;;;;;;;;23.00;32.30;;;;;;5072333;28;19925;-57
2024/03/27 00:59:10;;;;;;;;;;;23.00;32.30;;;;;;5072730;28;19978;-58
2024/03/27 01:01:36;;;;;;;;;;;23.00;32.30;;;;;;5072477;28;19930;-58
2024/03/27 01:04:02;;;;;;;;;;;23.00;32.30;;;;;;5071534;28;19962;-58
2024/03/27 01:06:28;;;;;;;;;;;23.00;32.40;;;;;;5072171;28;20274;-58
2024/03/27 01:08:54;;;;;;;;;;;23.00;32.40;;;;;;5062150;28;19924;-57
2024/03/27 01:11:19;;;;;;;;;;;23.00;32.40;;;;;;5052349;28;19974;-58
2024/03/27 01:13:45;;;;;;;;;;;23.00;32.40;;;;;;5035982;28;19931;-57
2024/03/27 01:16:11;;;;;;;;;;;22.90;32.40;;;;;;5035645;28;19933;-56
2024/03/27 01:18:37;;;;;;;;;;;23.00;32.40;;;;;;5052433;28;19929;-57
2024/03/27 01:21:03;;;;;;;;;;;22.90;32.40;;;;;;5051899;28;20397;-58
2024/03/27 01:23:29;;;;;;;;;;;22.90;32.40;;;;;;5035878;28;19949;-58
2024/03/27 01:25:55;;;;;;;;;;;22.90;32.50;;;;;;5018642;28;19925;-58
2024/03/27 01:28:21;;;;;;;;;;;22.90;32.50;;;;;;5051906;28;19925;-56
2024/03/27 01:30:47;;;;;;;;;;;22.90;32.50;;;;;;5051855;28;19936;-58
2024/03/27 01:33:13;;;;;;;;;;;22.90;32.50;;;;;;5051803;28;19928;-58
2024/03/27 01:35:45;;;;;;;;;;;22.90;32.50;;;;;;5051950;28;20314;-58
2024/03/27 01:38:11;;;;;;;;;;;22.90;32.60;;;;;;5051830;28;19924;-58
2024/03/27 01:40:37;;;;;;;;;;;22.90;32.60;;;;;;5059652;28;19931;-57
2024/03/27 01:43:03;;;;;;;;;;;22.90;32.80;;;;;;5071777;28;20399;-57
2024/03/27 01:45:29;;;;;;;;;;;22.90;32.60;;;;;;5071695;28;19970;-57
2024/03/27 01:47:55;;;;;;;;;;;22.90;32.60;;;;;;5072073;28;19994;-56
2024/03/27 01:50:28;;;;;;;;;;;22.90;32.60;;;;;;5071603;28;20362;-58
2024/03/27 01:52:56;;;;;;;;;;;22.90;32.60;;;;;;5072006;28;19924;-58
2024/03/27 01:55:22;;;;;;;;;;;22.80;32.50;;;;;;5071927;28;19924;-57
2024/03/27 01:57:48;;;;;;;;;;;22.90;32.60;;;;;;5071895;28;19928;-58
2024/03/27 02:00:14;;;;;;;;;;;22.90;32.60;;;;;;5071753;28;19986;-58
2024/03/27 02:02:40;;;;;;;;;;;22.90;32.60;;;;;;5071792;28;20270;-56
2024/03/27 02:05:10;;;;;;;;;;;22.90;32.60;;;;;;5071373;28;20313;-57
2024/03/27 02:07:39;;;;;;;;;;;22.80;32.60;;;;;;5071545;28;19929;-58
2024/03/27 02:10:05;;;;;;;;;;;22.90;32.60;;;;;;5071406;28;19939;-57
2024/03/27 02:12:32;;;;;;;;;;;22.90;32.70;;;;;;5071503;28;19924;-56
2024/03/27 02:15:01;;;;;;;;;;;22.80;32.60;;;;;;5073858;28;19931;-57
2024/03/27 02:17:27;;;;;;;;;;;22.90;32.70;;;;;;5075435;28;20441;-58
2024/03/27 02:19:53;;;;;;;;;;;22.80;32.70;;;;;;5075181;28;19933;-57
2024/03/27 02:22:19;;;;;;;;;;;22.80;32.70;;;;;;5075646;28;19931;-57
2024/03/27 02:24:47;;;;;;;;;;;22.80;32.70;;;;;;5074900;28;19925;-58
2024/03/27 02:27:13;;;;;;;;;;;22.80;32.70;;;;;;5075080;28;20400;-57
2024/03/27 02:29:39;;;;;;;;;;;22.80;32.70;;;;;;5075514;28;20334;-57
2024/03/27 02:32:05;;;;;;;;;;;22.80;32.80;;;;;;5074920;28;20333;-56
2024/03/27 02:34:31;;;;;;;;;;;22.80;32.80;;;;;;5075531;28;20331;-57
2024/03/27 02:36:56;;;;;;;;;;;22.80;32.80;;;;;;5074711;28;19928;-57
2024/03/27 02:39:22;;;;;;;;;;;22.70;32.80;;;;;;5075010;28;19929;-58
2024/03/27 02:41:48;;;;;;;;;;;22.70;32.80;;;;;;5074899;28;19925;-57
2024/03/27 02:44:14;;;;;;;;;;;22.70;32.80;;;;;;5071057;28;19931;-57
2024/03/27 02:46:40;;;;;;;;;;;22.70;32.90;;;;;;5054961;28;19931;-58
2024/03/27 02:49:06;;;;;;;;;;;22.70;32.90;;;;;;5054960;28;20289;-57
2024/03/27 02:51:31;;;;;;;;;;;22.70;32.90;;;;;;5054843;28;19925;-57
2024/03/27 02:53:58;;;;;;;;;;;22.70;32.90;;;;;;5055083;28;19948;-58
2024/03/27 02:56:24;;;;;;;;;;;22.70;32.90;;;;;;5054623;28;20378;-57
2024/03/27 02:58:49;;;;;;;;;;;22.70;32.90;;;;;;5054720;28;19925;-57
2024/03/27 03:01:15;;;;;;;;;;;22.70;32.90;;;;;;5054766;28;19936;-57
2024/03/27 03:03:41;;;;;;;;;;;22.70;32.90;;;;;;5054736;28;19947;-58
2024/03/27 03:06:07;;;;;;;;;;;22.70;33.00;;;;;;5054217;28;20405;-57
2024/03/27 03:08:33;;;;;;;;;;;22.70;32.90;;;;;;5054445;28;19978;-57
2024/03/27 03:10:59;;;;;;;;;;;22.70;32.90;;;;;;5054253;28;19925;-57
2024/03/27 03:13:24;;;;;;;;;;;22.70;33.00;;;;;;5054768;28;19925;-57
2024/03/27 03:15:50;;;;;;;;;;;22.70;33.00;;;;;;5054501;28;20286;-57
2024/03/27 03:18:16;;;;;;;;;;;22.70;32.90;;;;;;5054354;28;19928;-57
2024/03/27 03:20:42;;;;;;;;;;;22.70;33.00;;;;;;5054162;28;20353;-56
2024/03/27 03:23:08;;;;;;;;;;;22.70;33.00;;;;;;5054347;28;20011;-57
2024/03/27 03:25:36;;;;;;;;;;;22.70;33.00;;;;;;5051258;28;20202;-58
2024/03/27 03:28:01;;;;;;;;;;;22.70;33.00;;;;;;5054158;28;19925;-57
2024/03/27 03:30:27;;;;;;;;;;;22.70;33.00;;;;;;5054284;28;19925;-57
2024/03/27 03:32:54;;;;;;;;;;;22.70;33.00;;;;;;5053975;28;20003;-57
2024/03/27 03:35:20;;;;;;;;;;;22.70;33.00;;;;;;5054117;28;20325;-57
2024/03/27 03:37:46;;;;;;;;;;;22.70;33.00;;;;;;5053960;28;19929;-58
2024/03/27 03:40:12;;;;;;;;;;;22.60;33.00;;;;;;5054180;28;19952;-63
2024/03/27 03:42:38;;;;;;;;;;;22.70;33.10;;;;;;5053933;28;19932;-60
2024/03/27 03:45:05;;;;;;;;;;;22.60;33.00;;;;;;5054035;28;19925;-58
2024/03/27 03:47:31;;;;;;;;;;;22.60;33.00;;;;;;5053760;28;19932;-58
2024/03/27 03:49:57;;;;;;;;;;;22.60;33.00;;;;;;5053552;28;19925;-62
2024/03/27 03:52:22;;;;;;;;;;;22.60;33.10;;;;;;5053688;28;19979;-64
2024/03/27 03:54:48;;;;;;;;;;;22.60;33.10;;;;;;5054036;28;19925;-61
2024/03/27 03:57:14;;;;;;;;;;;22.60;33.20;;;;;;5066107;28;20635;-64
2024/03/27 03:59:40;;;;;;;;;;;22.60;33.10;;;;;;5073667;28;19925;-58
2024/03/27 04:02:06;;;;;;;;;;;22.60;33.20;;;;;;5073408;28;19932;-62
2024/03/27 04:04:31;;;;;;;;;;;22.60;33.20;;;;;;5073436;28;19925;-58
2024/03/27 04:06:57;;;;;;;;;;;22.60;33.20;;;;;;5073444;28;19924;-55
2024/03/27 04:09:23;;;;;;;;;;;22.60;33.20;;;;;;5073589;28;19925;-57
2024/03/27 04:11:49;;;;;;;;;;;22.60;33.20;;;;;;5073508;28;19940;-57
2024/03/27 04:14:15;;;;;;;;;;;22.60;33.20;;;;;;5073414;28;19924;-57
2024/03/27 04:16:40;;;;;;;;;;;22.60;33.20;;;;;;5073270;28;20378;-58
2024/03/27 04:19:06;;;;;;;;;;;22.60;33.20;;;;;;5073443;28;19928;-58
2024/03/27 04:21:32;;;;;;;;;;;22.60;33.20;;;;;;5072947;28;20404;-56
2024/03/27 04:23:58;;;;;;;;;;;22.60;33.20;;;;;;5072862;28;19932;-58
2024/03/27 04:26:24;;;;;;;;;;;22.60;33.10;;;;;;5072619;28;19928;-56
2024/03/27 04:28:50;;;;;;;;;;;22.60;33.10;;;;;;5072840;28;19932;-58
2024/03/27 04:31:16;;;;;;;;;;;22.60;33.10;;;;;;5072495;28;19936;-58
2024/03/27 04:33:42;;;;;;;;;;;22.60;33.10;;;;;;5072965;28;20408;-57
2024/03/27 04:36:08;;;;;;;;;;;22.60;33.10;;;;;;5072783;28;19929;-57
2024/03/27 04:38:34;;;;;;;;;;;22.60;33.10;;;;;;5072271;28;20444;-57
2024/03/27 04:41:01;;;;;;;;;;;22.70;33.20;;;;;;5066818;28;19933;-59
2024/03/27 04:43:28;;;;;;;;;;;22.60;33.20;;;;;;5066660;28;19938;-57
2024/03/27 04:45:54;;;;;;;;;;;22.70;33.20;;;;;;5072249;28;19925;-56
2024/03/27 04:48:20;;;;;;;;;;;22.70;33.20;;;;;;5072433;28;19924;-58
2024/03/27 04:50:46;;;;;;;;;;;22.70;33.20;;;;;;5072068;28;19990;-58
2024/03/27 04:53:12;;;;;;;;;;;22.70;33.20;;;;;;5072749;28;19978;-58
2024/03/27 04:55:37;;;;;;;;;;;22.70;33.20;;;;;;5072735;28;19928;-56
2024/03/27 04:58:03;;;;;;;;;;;22.70;33.20;;;;;;5072164;28;20382;-58
2024/03/27 05:00:29;;;;;;;;;;;22.70;33.80;;;;;;5058482;28;19982;-58
2024/03/27 05:02:55;;;;;;;;;;;22.70;33.80;;;;;;5052274;28;20242;-58
2024/03/27 05:05:21;;;;;;;;;;;22.70;33.20;;;;;;5052583;28;20023;-58
2024/03/27 05:07:47;;;;;;;;;;;22.70;33.20;;;;;;5052177;28;19931;-58
2024/03/27 05:10:12;;;;;;;;;;;22.80;33.20;;;;;;5052161;28;19925;-58
2024/03/27 05:12:38;;;;;;;;;;;22.70;33.20;;;;;;5052045;28;19925;-57
2024/03/27 05:15:04;;;;;;;;;;;22.70;33.20;;;;;;5051884;28;19929;-58
2024/03/27 05:17:30;;;;;;;;;;;22.80;33.30;;;;;;5052037;28;19932;-57
2024/03/27 05:19:56;;;;;;;;;;;22.80;33.30;;;;;;5052008;28;19925;-58
2024/03/27 05:22:27;;;;;;;;;;;22.80;33.30;;;;;;5051758;28;20271;-58
2024/03/27 05:24:54;;;;;;;;;;;22.80;33.30;;;;;;5052218;28;20293;-58
2024/03/27 05:27:20;;;;;;;;;;;22.90;33.30;;;;;;5068447;28;19932;-58
2024/03/27 05:29:46;;;;;;;;;;;22.90;33.30;;;;;;5071803;28;19999;-58
2024/03/27 05:32:12;;;;;;;;;;;22.90;33.20;;;;;;5072212;28;19940;-59
2024/03/27 05:34:38;;;;;;;;;;;22.90;33.20;;;;;;5071113;28;20352;-58
2024/03/27 05:37:04;;;;;;;;;;;23.00;33.20;;;;;;5052031;28;19925;-57
2024/03/27 05:39:29;;;;;;;;;;;23.00;33.20;;;;;;5060293;28;19929;-57
2024/03/27 05:41:56;;;;;;;;;;;23.00;33.20;;;;;;5068590;28;20716;-57
2024/03/27 05:44:22;;;;;;;;;;;23.00;33.10;;;;;;5066507;28;20030;-58
2024/03/27 05:46:48;;;;;;;;;;;23.10;33.20;;;;;;5067360;28;19925;-57
2024/03/27 05:49:13;;;;;;;;;;;23.10;33.20;;;;;;5055043;28;19983;-58
2024/03/27 05:51:39;;;;;;;;;;;23.10;33.10;;;;;;5066690;28;19978;-58
2024/03/27 05:54:05;;;;;;;;;;;23.10;33.10;;;;;;5051841;28;20259;-58
2024/03/27 05:56:31;;;;;;;;;;;23.10;33.10;;;;;;5054545;28;20303;-58
2024/03/27 05:58:57;;;;;;;;;;;23.20;33.20;;;;;;5065477;28;20366;-58
2024/03/27 06:01:23;;;;;;;;;;;23.20;33.10;;;;;;5071844;28;19929;-58
2024/03/27 06:03:50;;;;;;;;;;;23.20;33.10;;;;;;5069702;28;19924;-55
2024/03/27 06:06:16;;;;;;;;;;;23.20;33.10;;;;;;5060614;28;19924;-58
2024/03/27 06:08:42;;;;;;;;;;;23.30;33.20;;;;;;5057762;28;19932;-58
2024/03/27 06:11:08;;;;;;;;;;;23.30;33.20;;;;;;5065017;28;19978;-58
2024/03/27 06:13:34;;;;;;;;;;;23.30;33.20;;;;;;5069383;28;20289;-58
2024/03/27 06:16:00;;;;;;;;;;;23.30;33.20;;;;;;5068346;28;19975;-57
2024/03/27 06:18:26;;;;;;;;;;;23.30;33.20;;;;;;5059657;28;20309;-58
2024/03/27 06:20:52;;;;;;;;;;;23.30;33.10;;;;;;5065342;28;19929;-59
2024/03/27 06:23:18;;;;;;;;;;;23.30;33.10;;;;;;5060881;28;19986;-60
2024/03/27 06:25:54;;;;;;;;;;;23.40;33.90;;;;;;5058883;28;20285;-60
2024/03/27 06:28:19;;;;;;;;;;;23.40;33.60;;;;;;5055602;28;19970;-61
2024/03/27 06:30:45;;;;;;;;;;;23.40;33.80;;;;;;5057418;28;20164;-60
2024/03/27 06:33:11;;;;;;;;;;;23.40;34.00;;;;;;5058857;28;20427;-61
2024/03/27 06:35:37;;;;;;;;;;;23.50;34.10;;;;;;5055987;28;20269;-59
2024/03/27 06:38:03;;;;;;;;;;;23.50;34.20;;;;;;5062135;28;20024;-59
2024/03/27 06:40:29;;;;;;;;;;;23.60;34.20;;;;;;5063770;28;19924;-59
2024/03/27 06:42:55;;;;;;;;;;;23.60;34.20;;;;;;5056925;28;20020;-59
2024/03/27 06:45:21;;;;;;;;;;;23.60;34.20;;;;;;5045479;28;19940;-59
2024/03/27 06:47:47;;;;;;;;;;;23.60;34.20;;;;;;5063362;28;20405;-60
2024/03/27 06:50:13;;;;;;;;;;;23.60;34.20;;;;;;5051466;28;19932;-59
2024/03/27 06:52:39;;;;;;;;;;;23.60;34.40;;;;;;5053181;28;19932;-58
2024/03/27 06:55:05;;;;;;;;;;;23.70;34.40;;;;;;5048678;28;19944;-58
2024/03/27 06:57:31;;;;;;;;;;;23.70;34.20;;;;;;5054308;28;20040;-58
2024/03/27 06:59:57;;;;;;;;;;;23.70;34.10;;;;;;5051291;28;19936;-58
2024/03/27 07:02:22;;;;;;;;;;;23.70;34.00;;;;;;5050265;28;19929;-58
2024/03/27 07:04:48;;;;;;;;;;;23.70;34.50;;;;;;5061037;28;19933;-56
2024/03/27 07:07:14;;;;;;;;;;;23.70;34.00;;;;;;5056819;28;20280;-55
2024/03/27 07:09:40;;;;;;;;;;;23.80;34.20;;;;;;5054566;28;19929;-59
2024/03/27 07:12:06;;;;;;;;;;;23.80;34.20;;;;;;5052739;28;19947;-59
2024/03/27 07:14:32;;;;;;;;;;;23.90;34.20;;;;;;5050027;28;19932;-59
2024/03/27 07:16:57;;;;;;;;;;;23.90;34.20;;;;;;5055769;28;20093;-58
2024/03/27 07:19:23;;;;;;;;;;;23.90;34.10;;;;;;5039507;28;20378;-59
2024/03/27 07:21:49;;;;;;;;;;;24.00;34.10;;;;;;5055977;28;19932;-59
2024/03/27 07:24:15;;;;;;;;;;;24.00;34.10;;;;;;5057415;28;20377;-59
2024/03/27 07:26:43;;;;;;;;;;;24.10;34.20;;;;;;5055452;28;20014;-59
2024/03/27 07:29:09;;;;;;;;;;;24.10;34.10;;;;;;5056831;28;19933;-61
2024/03/27 07:31:35;;;;;;;;;;;24.10;34.00;;;;;;5059339;28;19933;-62
2024/03/27 07:34:01;;;;;;;;;;;24.20;34.20;;;;;;5057616;28;20287;-62
2024/03/27 07:36:27;;;;;;;;;;;24.20;34.20;;;;;;5054764;28;19925;-62
2024/03/27 07:38:53;;;;;;;;;;;24.30;34.40;;;;;;5056369;28;20530;-60
2024/03/27 07:41:19;;;;;;;;;;;24.30;34.40;;;;;;5060813;28;20401;-60
2024/03/27 07:43:45;;;;;;;;;;;24.30;34.50;;;;;;5057669;28;19928;-62
2024/03/27 07:46:14;;;;;;;;;;;24.40;34.50;;;;;;5057315;28;19939;-60
2024/03/27 07:48:40;;;;;;;;;;;24.50;34.60;;;;;;5061381;28;19924;-63
2024/03/27 07:51:06;;;;;;;;;;;24.50;34.60;;;;;;5056509;28;20015;-61
2024/03/27 07:53:32;;;;;;;;;;;24.50;34.50;;;;;;5056924;28;20546;-62
2024/03/27 07:56:03;;;;;;;;;;;24.60;34.40;;;;;;5057110;28;20054;-62
2024/03/27 07:58:29;;;;;;;;;;;24.60;34.40;;;;;;5055611;28;20359;-65
2024/03/27 08:00:56;;;;;;;;;;;24.70;34.40;;;;;;5051741;28;19981;-64
2024/03/27 08:03:23;;;;;;;;;;;24.70;34.50;;;;;;5061129;28;19932;-62
2024/03/27 08:05:48;;;;;;;;;;;24.70;34.60;;;;;;5058271;28;19924;-63
2024/03/27 08:08:14;;;;;;;;;;;24.70;34.70;;;;;;5062165;28;19931;-60
2024/03/27 08:10:41;;;;;;;;;;;24.80;34.80;;;;;;5061091;28;19969;-60
2024/03/27 08:13:07;;;;;;;;;;;24.80;34.70;;;;;;5056137;28;19937;-61
2024/03/27 08:15:38;;;;;;;;;;;24.80;34.50;;;;;;5060009;28;20446;-62
2024/03/27 08:18:04;;;;;;;;;;;24.90;34.40;;;;;;5058996;28;19933;-61
2024/03/27 08:20:30;;;;;;;;;;;24.90;34.40;;;;;;5061166;28;19932;-59
2024/03/27 08:22:56;;;;;;;;;;;24.90;34.30;;;;;;5060540;28;19954;-59
2024/03/27 08:25:22;;;;;;;;;;;24.90;34.30;;;;;;5062439;28;20373;-60
2024/03/27 08:27:48;;;;;;;;;;;24.90;34.10;;;;;;5061072;28;19924;-63
2024/03/27 08:30:14;;;;;;;;;;;24.90;34.20;;;;;;5053454;28;20389;-63
2024/03/27 08:32:40;;;;;;;;;;;25.00;34.10;;;;;;5055409;28;19935;-63
2024/03/27 08:35:06;;;;;;;;;;;25.00;34.10;;;;;;5055850;28;19947;-64
2024/03/27 08:37:31;;;;;;;;;;;25.00;34.20;;;;;;5056751;28;19924;-63
2024/03/27 08:39:57;;;;;;;;;;;25.00;34.10;;;;;;5059423;28;19982;-64
2024/03/27 08:42:23;;;;;;;;;;;25.10;34.10;;;;;;5058271;28;19928;-62
2024/03/27 08:44:49;;;;;;;;;;;25.10;34.10;;;;;;5056634;28;19924;-63
2024/03/27 08:47:15;;;;;;;;;;;25.10;34.10;;;;;;5041367;28;19932;-61
2024/03/27 08:49:41;;;;;;;;;;;25.10;34.10;;;;;;5061581;28;20431;-62
2024/03/27 08:52:06;;;;;;;;;;;25.10;34.10;;;;;;5062882;28;19928;-61
2024/03/27 08:54:32;;;;;;;;;;;25.10;34.10;;;;;;5059437;28;19980;-61
2024/03/27 08:56:58;;;;;;;;;;;25.20;34.10;;;;;;5058461;28;20319;-61
2024/03/27 08:59:24;;;;;;;;;;;25.20;34.10;;;;;;5059920;28;19929;-62
2024/03/27 09:01:50;;;;;;;;;;;25.30;34.00;;;;;;5055574;28;20278;-62
2024/03/27 09:04:16;;;;;;;;;;;25.30;34.10;;;;;;5057203;28;19959;-65
2024/03/27 09:06:42;;;;;;;;;;;25.30;34.10;;;;;;5057762;28;19934;-60
2024/03/27 09:09:08;;;;;;;;;;;25.30;34.20;;;;;;5059867;28;19933;-62
2024/03/27 09:11:34;;;;;;;;;;;25.30;34.20;;;;;;5054953;28;20129;-62
2024/03/27 09:14:00;;;;;;;;;;;25.40;34.20;;;;;;5057967;28;19951;-60
2024/03/27 09:16:26;;;;;;;;;;;25.40;34.20;;;;;;5041315;28;19983;-59
2024/03/27 09:18:52;;;;;;;;;;;25.40;34.40;;;;;;5057929;28;19932;-60
2024/03/27 09:21:18;;;;;;;;;;;25.40;34.30;;;;;;5057661;28;19929;-62
2024/03/27 09:23:44;;;;;;;;;;;25.40;34.20;;;;;;5058847;28;19933;-63
2024/03/27 09:26:10;;;;;;;;;;;25.50;34.20;;;;;;5059494;28;19931;-60
2024/03/27 09:28:36;;;;;;;;;;;25.50;34.20;;;;;;5057956;28;19933;-61
2024/03/27 09:31:02;;;;;;;;;;;25.50;34.20;;;;;;5039638;28;19932;-61
2024/03/27 09:33:28;;;;;;;;;;;25.60;34.30;;;;;;5054180;28;19942;-59
2024/03/27 09:35:54;;;;;;;;;;;25.60;34.40;;;;;;5053226;28;20275;-61
2024/03/27 09:38:20;;;;;;;;;;;25.60;34.40;;;;;;5056638;28;19931;-61
2024/03/27 09:40:57;;;;;;;;;;;25.70;34.70;;;;;;5056041;28;20114;-61
2024/03/27 09:43:23;;;;;;;;;;;25.70;34.60;;;;;;5059186;28;19933;-61
2024/03/27 09:45:50;;;;;;;;;;;25.70;34.40;;;;;;5059277;28;19928;-61
2024/03/27 09:48:16;;;;;;;;;;;25.80;34.20;;;;;;5055759;28;19925;-61
2024/03/27 09:50:42;;;;;;;;;;;25.80;34.10;;;;;;5060804;28;20395;-61
2024/03/27 09:53:08;;;;;;;;;;;25.80;34.10;;;;;;5057187;28;19924;-62
2024/03/27 09:55:35;;;;;;;;;;;25.80;34.10;;;;;;5059834;28;19924;-61
2024/03/27 09:58:03;;;;;;;;;;;25.80;34.10;;;;;;5058610;28;19928;-62
2024/03/27 10:00:29;;;;;;;;;;;25.90;34.00;;;;;;5058352;28;19932;-61
2024/03/27 10:02:58;;;;;;;;;;;25.90;33.90;;;;;;5037813;28;20396;-61
2024/03/27 10:05:25;;;;;;;;;;;25.90;33.90;;;;;;5055708;28;19955;-60
2024/03/27 10:07:51;;;;;;;;;;;25.90;33.80;;;;;;5056082;28;20347;-61
2024/03/27 10:10:17;;;;;;;;;;;26.00;33.80;;;;;;5056883;28;19932;-60
2024/03/27 10:12:42;;;;;;;;;;;26.00;33.80;;;;;;5058743;28;19930;-63
2024/03/27 10:15:09;;;;;;;;;;;26.00;33.80;;;;;;5058209;28;20397;-61
2024/03/27 10:17:36;;;;;;;;;;;26.00;33.80;;;;;;5055529;28;19928;-61
2024/03/27 10:20:02;;;;;;;;;;;26.00;33.80;;;;;;5058622;28;19929;-61
2024/03/27 10:22:31;;;;;;;;;;;26.00;33.90;;;;;;5060396;28;19935;-60
2024/03/27 10:24:57;;;;;;;;;;;26.00;33.80;;;;;;5058887;28;19933;-60
2024/03/27 10:27:23;;;;;;;;;;;26.00;34.30;;;;;;5060070;28;20028;-61
2024/03/27 10:29:49;;;;;;;;;;;26.10;33.70;;;;;;5059366;28;19929;-61
2024/03/27 10:32:15;;;;;;;;;;;26.10;33.70;;;;;;5057937;28;19940;-61
2024/03/27 10:34:42;;;;;;;;;;;26.10;33.70;;;;;;5039719;28;19924;-62
2024/03/27 10:37:11;;;;;;;;;;;26.10;33.60;;;;;;5056614;28;19932;-61
2024/03/27 10:39:43;;;;;;;;;;;26.10;33.60;;;;;;5059025;28;19933;-61
2024/03/27 10:42:13;;;;;;;;;;;26.10;33.60;;;;;;5051310;28;19932;-60
2024/03/27 10:44:39;;;;;;;;;;;26.10;33.50;;;;;;5058453;28;19928;-62
2024/03/27 10:47:11;;;;;;;;;;;26.10;33.50;;;;;;5057057;28;19925;-59
2024/03/27 10:49:38;;;;;;;;;;;26.10;33.50;;;;;;5057181;28;20195;-59
2024/03/27 10:52:04;;;;;;;;;;;26.10;33.40;;;;;;5065973;28;19959;-60
2024/03/27 10:54:32;;;;;;;;;;;26.10;33.40;;;;;;5062501;28;19939;-58
2024/03/27 10:56:59;;;;;;;;;;;26.20;33.50;;;;;;5064355;28;19925;-60
2024/03/27 10:59:26;;;;;;;;;;;26.20;33.40;;;;;;5057952;28;19924;-59
2024/03/27 11:02:02;;;;;;;;;;;26.20;33.40;;;;;;5068082;28;19925;-58
2024/03/27 11:04:30;;;;;;;;;;;26.20;33.50;;;;;;5060984;28;20436;-61
2024/03/27 11:06:57;;;;;;;;;;;26.20;33.50;;;;;;5068756;28;19932;-58
2024/03/27 11:09:23;;;;;;;;;;;26.20;33.50;;;;;;5065306;28;19924;-60
2024/03/27 11:11:49;;;;;;;;;;;26.10;33.40;;;;;;5065220;28;19933;-59
2024/03/27 11:14:18;;;;;;;;;;;26.20;33.50;;;;;;5063457;28;19947;-58
2024/03/27 11:16:51;;;;;;;;;;;26.20;33.60;;;;;;5066402;28;19932;-60
2024/03/27 11:19:18;;;;;;;;;;;26.10;33.50;;;;;;5063161;28;19954;-59
2024/03/27 11:21:43;;;;;;;;;;;26.20;33.60;;;;;;5062940;28;19955;-58
2024/03/27 11:24:11;;;;;;;;;;;26.20;34.10;;;;;;5062991;28;20003;-59
2024/03/27 11:26:37;;;;;;;;;;;26.20;33.50;;;;;;5040559;28;19932;-60
2024/03/27 11:29:05;;;;;;;;;;;26.20;33.40;;;;;;5052432;28;19928;-60
2024/03/27 11:31:39;;;;;;;;;;;26.30;33.40;;;;;;5057931;28;19933;-58
2024/03/27 11:34:05;;;;;;;;;;;26.30;33.40;;;;;;5059291;28;20293;-59
2024/03/27 11:36:31;;;;;;;;;;;26.30;33.30;;;;;;5056770;28;19943;-60
2024/03/27 11:38:57;;;;;;;;;;;26.30;33.30;;;;;;5058893;28;19929;-59
2024/03/27 11:41:23;;;;;;;;;;;26.30;33.30;;;;;;5054928;28;20469;-59
2024/03/27 11:43:50;;;;;;;;;;;26.40;33.40;;;;;;5053212;28;19938;-65
2024/03/27 11:46:16;;;;;;;;;;;26.30;33.40;;;;;;5057398;28;19925;-59
2024/03/27 11:48:42;;;;;;;;;;;26.40;33.40;;;;;;5055957;28;20359;-62
2024/03/27 11:51:08;;;;;;;;;;;26.40;33.40;;;;;;5052472;28;20079;-63
2024/03/27 11:53:35;;;;;;;;;;;26.40;33.40;;;;;;5056287;28;19932;-62
2024/03/27 11:56:01;;;;;;;;;;;26.40;33.50;;;;;;5048741;28;19932;-61
2024/03/27 11:58:27;;;;;;;;;;;26.40;33.50;;;;;;5050861;28;20023;-61
2024/03/27 12:00:54;;;;;;;;;;;26.40;33.60;;;;;;5051383;28;19932;-60
2024/03/27 12:03:20;;;;;;;;;;;26.30;33.60;;;;;;5054815;28;19993;-61
2024/03/27 12:05:46;;;;;;;;;;;26.30;33.60;;;;;;5043642;28;20022;-60
2024/03/27 12:08:12;;;;;;;;;;;26.30;33.60;;;;;;5043085;28;19948;-62
2024/03/27 12:10:41;;;;;;;;;;;26.30;33.60;;;;;;5055911;28;19978;-59
2024/03/27 12:13:07;;;;;;;;;;;26.30;33.70;;;;;;5066634;28;19950;-59
2024/03/27 12:15:33;;;;;;;;;;;26.30;33.70;;;;;;5062151;28;19948;-58
2024/03/27 12:18:03;;;;;;;;;;;26.30;33.70;;;;;;5044857;28;20389;-57
2024/03/27 12:20:32;;;;;;;;;;;26.30;33.70;;;;;;5059660;28;19932;-58
2024/03/27 12:22:58;;;;;;;;;;;26.30;33.70;;;;;;5065037;28;19932;-57
2024/03/27 12:25:31;;;;;;;;;;;26.30;33.80;;;;;;5058998;28;19932;-59
2024/03/27 12:28:00;;;;;;;;;;;26.30;33.70;;;;;;5046086;28;19928;-58
2024/03/27 12:30:26;;;;;;;;;;;26.30;33.70;;;;;;5057017;28;19925;-58
2024/03/27 12:32:54;;;;;;;;;;;26.30;33.80;;;;;;5061190;28;19933;-57
2024/03/27 12:35:21;;;;;;;;;;;26.30;33.80;;;;;;5058973;28;19932;-58
2024/03/27 12:37:47;;;;;;;;;;;26.30;33.80;;;;;;5060180;28;19929;-58
2024/03/27 12:40:13;;;;;;;;;;;26.30;33.80;;;;;;5061894;28;20285;-60
2024/03/27 12:42:40;;;;;;;;;;;26.30;33.80;;;;;;5055523;28;19924;-58
2024/03/27 12:45:06;;;;;;;;;;;26.30;33.80;;;;;;5059055;28;19929;-58
2024/03/27 12:47:32;;;;;;;;;;;26.40;33.90;;;;;;5058140;28;19937;-58
2024/03/27 12:49:58;;;;;;;;;;;26.30;33.90;;;;;;5053650;28;19933;-58
2024/03/27 12:52:24;;;;;;;;;;;26.30;33.90;;;;;;5058148;28;19924;-58
2024/03/27 12:54:50;;;;;;;;;;;26.30;33.80;;;;;;5059326;28;19929;-58
2024/03/27 12:57:16;;;;;;;;;;;26.30;33.80;;;;;;5055150;28;20398;-60
2024/03/27 12:59:42;;;;;;;;;;;26.30;33.80;;;;;;5059267;28;19935;-57
2024/03/27 13:02:11;;;;;;;;;;;26.30;33.80;;;;;;5061791;28;19929;-58
2024/03/27 13:04:37;;;;;;;;;;;26.30;34.00;;;;;;5058460;28;19932;-58
2024/03/27 13:07:03;;;;;;;;;;;26.40;34.10;;;;;;5054465;28;19932;-59
2024/03/27 13:09:29;;;;;;;;;;;26.30;33.90;;;;;;5058940;28;19924;-59
2024/03/27 13:11:55;;;;;;;;;;;26.40;34.10;;;;;;5060759;28;19936;-58
2024/03/27 13:14:22;;;;;;;;;;;26.40;34.10;;;;;;5043426;28;19933;-61
2024/03/27 13:16:49;;;;;;;;;;;26.40;33.90;;;;;;5058178;28;19935;-59
2024/03/27 13:19:15;;;;;;;;;;;26.40;34.00;;;;;;5058753;28;20287;-59
2024/03/27 13:21:41;;;;;;;;;;;26.40;34.00;;;;;;5056465;28;20012;-59
2024/03/27 13:24:07;;;;;;;;;;;26.50;34.10;;;;;;5061132;28;20162;-61
2024/03/27 13:26:32;;;;;;;;;;;26.50;34.10;;;;;;5059469;28;20606;-59
2024/03/27 13:28:58;;;;;;;;;;;26.50;34.10;;;;;;5058346;28;19955;-59
2024/03/27 13:31:24;;;;;;;;;;;26.50;34.20;;;;;;5061219;28;20385;-59
2024/03/27 13:33:50;;;;;;;;;;;26.50;34.30;;;;;;5060819;28;19924;-58
2024/03/27 13:36:16;;;;;;;;;;;26.50;34.20;;;;;;5043678;28;19932;-58
2024/03/27 13:38:42;;;;;;;;;;;26.50;34.10;;;;;;5060060;28;20019;-59
2024/03/27 13:41:07;;;;;;;;;;;26.50;34.10;;;;;;5062454;28;19932;-60
2024/03/27 13:43:33;;;;;;;;;;;26.50;34.20;;;;;;5061920;28;20320;-60
2024/03/27 13:45:59;;;;;;;;;;;26.60;34.80;;;;;;5061347;28;19925;-59
2024/03/27 13:48:25;;;;;;;;;;;26.60;34.30;;;;;;5062345;28;20370;-60
2024/03/27 13:50:51;;;;;;;;;;;26.60;34.20;;;;;;5061606;28;19925;-61
2024/03/27 13:53:17;;;;;;;;;;;26.60;34.20;;;;;;5058228;28;20195;-60
2024/03/27 13:55:42;;;;;;;;;;;26.60;34.10;;;;;;5057235;28;19933;-60
2024/03/27 13:58:08;;;;;;;;;;;26.60;34.10;;;;;;5059461;28;19931;-60
2024/03/27 14:00:34;;;;;;;;;;;26.70;34.20;;;;;;5061015;28;20309;-60
2024/03/27 14:03:00;;;;;;;;;;;26.70;34.10;;;;;;5047077;28;19925;-60
2024/03/27 14:05:26;;;;;;;;;;;26.70;34.20;;;;;;5056958;28;19929;-59
2024/03/27 14:07:51;;;;;;;;;;;26.70;34.10;;;;;;5053542;28;19944;-60
2024/03/27 14:10:17;;;;;;;;;;;26.70;34.10;;;;;;5056920;28;20332;-59